createdAt,value
2018-09-13T00:00:07.573Z,1.609344
2018-09-13T00:00:20.123Z,1.609344
2018-09-13T00:00:32.608Z,1.609344
2018-09-13T00:00:45.033Z,1.609344
2018-09-13T00:00:57.456Z,1.609344
2018-09-13T00:01:09.882Z,1.609344
2018-09-13T00:01:22.289Z,1.609344
2018-09-13T00:01:34.686Z,1.609344
2018-09-13T00:01:47.112Z,3.218688
2018-09-13T00:01:59.583Z,3.218688
2018-09-13T00:02:12.000Z,3.218688
2018-09-13T00:02:24.413Z,8.04672
2018-09-13T00:02:36.836Z,8.04672
2018-09-13T00:02:49.260Z,8.04672
2018-09-13T00:03:01.659Z,8.04672
2018-09-13T00:03:14.054Z,1.609344
2018-09-13T00:03:26.758Z,1.609344
2018-09-13T00:03:39.185Z,1.609344
2018-09-13T00:03:51.586Z,1.609344
2018-09-13T00:04:03.996Z,1.609344
2018-09-13T00:04:16.411Z,1.609344
2018-09-13T00:04:28.817Z,3.218688
2018-09-13T00:04:41.213Z,4.828032
2018-09-13T00:04:53.680Z,4.828032
2018-09-13T00:05:06.096Z,0
2018-09-13T00:05:18.504Z,1.609344
2018-09-13T00:05:30.901Z,1.609344
2018-09-13T00:05:43.462Z,3.218688
2018-09-13T00:05:56.374Z,3.218688
2018-09-13T00:06:09.243Z,1.609344
2018-09-13T00:06:21.654Z,1.609344
2018-09-13T00:06:34.090Z,1.609344
2018-09-13T00:06:46.529Z,3.218688
2018-09-13T00:06:58.950Z,6.437376
2018-09-13T00:07:11.370Z,4.828032
2018-09-13T00:07:23.805Z,6.437376
2018-09-13T00:07:36.265Z,6.437376
2018-09-13T00:07:48.944Z,6.437376
2018-09-13T00:08:01.377Z,8.04672
2018-09-13T00:08:13.795Z,8.04672
2018-09-13T00:08:26.224Z,8.04672
2018-09-13T00:08:38.632Z,8.04672
2018-09-13T00:08:51.054Z,8.04672
2018-09-13T00:09:03.463Z,8.04672
2018-09-13T00:09:15.898Z,4.828032
2018-09-13T00:09:28.377Z,4.828032
2018-09-13T00:09:40.802Z,4.828032
2018-09-13T00:09:53.622Z,4.828032
2018-09-13T00:10:06.049Z,8.04672
2018-09-13T00:10:18.481Z,8.04672
2018-09-13T00:10:30.981Z,8.04672
2018-09-13T00:10:43.418Z,8.04672
2018-09-13T00:10:55.819Z,8.04672
2018-09-13T00:11:08.233Z,8.04672
2018-09-13T00:11:20.889Z,8.04672
2018-09-13T00:11:33.362Z,11.265408
2018-09-13T00:11:45.932Z,11.265408
2018-09-13T00:11:58.341Z,11.265408
2018-09-13T00:12:10.859Z,8.04672
2018-09-13T00:12:23.275Z,8.04672
2018-09-13T00:12:35.681Z,8.04672
2018-09-13T00:12:48.214Z,8.04672
2018-09-13T00:13:00.625Z,9.656064
2018-09-13T00:13:13.047Z,9.656064
2018-09-13T00:13:25.468Z,9.656064
2018-09-13T00:13:37.867Z,9.656064
2018-09-13T00:13:50.278Z,9.656064
2018-09-13T00:14:02.769Z,9.656064
2018-09-13T00:14:15.213Z,3.218688
2018-09-13T00:14:27.608Z,6.437376
2018-09-13T00:14:40.019Z,6.437376
2018-09-13T00:14:52.835Z,6.437376
2018-09-13T00:15:05.290Z,1.609344
2018-09-13T00:15:17.679Z,3.218688
2018-09-13T00:15:30.218Z,3.218688
2018-09-13T00:15:42.637Z,4.828032
2018-09-13T00:15:55.036Z,8.04672
2018-09-13T00:16:07.439Z,3.218688
2018-09-13T00:16:19.848Z,3.218688
2018-09-13T00:16:32.245Z,3.218688
2018-09-13T00:16:44.653Z,3.218688
2018-09-13T00:16:57.066Z,4.828032
2018-09-13T00:17:09.481Z,8.04672
2018-09-13T00:17:21.893Z,8.04672
2018-09-13T00:17:34.295Z,8.04672
2018-09-13T00:17:46.711Z,8.04672
2018-09-13T00:17:59.122Z,8.04672
2018-09-13T00:18:11.522Z,4.828032
2018-09-13T00:18:23.933Z,4.828032
2018-09-13T00:18:36.387Z,4.828032
2018-09-13T00:18:48.847Z,4.828032
2018-09-13T00:19:01.246Z,4.828032
2018-09-13T00:19:13.661Z,1.609344
2018-09-13T00:19:26.071Z,3.218688
2018-09-13T00:19:38.472Z,3.218688
2018-09-13T00:19:50.915Z,3.218688
2018-09-13T00:20:03.332Z,3.218688
2018-09-13T00:20:15.792Z,1.609344
2018-09-13T00:20:28.256Z,1.609344
2018-09-13T00:20:40.695Z,1.609344
2018-09-13T00:20:53.089Z,1.609344
2018-09-13T00:21:05.813Z,1.609344
2018-09-13T00:21:18.224Z,1.609344
2018-09-13T00:21:30.625Z,1.609344
2018-09-13T00:21:43.062Z,1.609344
2018-09-13T00:21:55.490Z,3.218688
2018-09-13T00:22:07.899Z,3.218688
2018-09-13T00:22:20.299Z,3.218688
2018-09-13T00:22:32.709Z,3.218688
2018-09-13T00:22:45.101Z,4.828032
2018-09-13T00:22:57.502Z,4.828032
2018-09-13T00:23:10.045Z,3.218688
2018-09-13T00:23:22.440Z,3.218688
2018-09-13T00:23:34.857Z,3.218688
2018-09-13T00:23:47.273Z,3.218688
2018-09-13T00:23:59.862Z,3.218688
2018-09-13T00:24:12.431Z,3.218688
2018-09-13T00:24:24.833Z,3.218688
2018-09-13T00:24:37.259Z,3.218688
2018-09-13T00:24:49.693Z,3.218688
2018-09-13T00:25:02.096Z,3.218688
2018-09-13T00:25:14.526Z,3.218688
2018-09-13T00:25:26.930Z,3.218688
2018-09-13T00:25:39.355Z,3.218688
2018-09-13T00:25:51.760Z,3.218688
2018-09-13T00:26:04.404Z,3.218688
2018-09-13T00:26:16.810Z,3.218688
2018-09-13T00:26:29.217Z,3.218688
2018-09-13T00:26:41.627Z,3.218688
2018-09-13T00:26:54.046Z,3.218688
2018-09-13T00:27:06.446Z,1.609344
2018-09-13T00:27:18.853Z,3.218688
2018-09-13T00:27:31.242Z,3.218688
2018-09-13T00:27:43.683Z,3.218688
2018-09-13T00:27:56.074Z,3.218688
2018-09-13T00:28:08.647Z,0
2018-09-13T00:28:21.112Z,0
2018-09-13T00:28:33.537Z,1.609344
2018-09-13T00:28:45.951Z,1.609344
2018-09-13T00:28:58.351Z,1.609344
2018-09-13T00:29:10.742Z,0
2018-09-13T00:29:23.160Z,1.609344
2018-09-13T00:29:35.576Z,3.218688
2018-09-13T00:29:47.973Z,4.828032
2018-09-13T00:30:00.378Z,6.437376
2018-09-13T00:30:12.798Z,6.437376
2018-09-13T00:30:25.207Z,6.437376
2018-09-13T00:30:37.637Z,8.04672
2018-09-13T00:30:50.077Z,8.04672
2018-09-13T00:31:02.496Z,8.04672
2018-09-13T00:31:15.338Z,6.437376
2018-09-13T00:31:27.762Z,6.437376
2018-09-13T00:31:40.185Z,6.437376
2018-09-13T00:31:52.586Z,8.04672
2018-09-13T00:32:04.984Z,9.656064
2018-09-13T00:32:17.530Z,9.656064
2018-09-13T00:32:29.926Z,9.656064
2018-09-13T00:32:42.320Z,9.656064
2018-09-13T00:32:54.752Z,9.656064
2018-09-13T00:33:07.172Z,6.437376
2018-09-13T00:33:19.574Z,6.437376
2018-09-13T00:33:31.979Z,8.04672
2018-09-13T00:33:44.495Z,9.656064
2018-09-13T00:33:56.902Z,9.656064
2018-09-13T00:34:09.303Z,8.04672
2018-09-13T00:34:21.683Z,8.04672
2018-09-13T00:34:34.107Z,8.04672
2018-09-13T00:34:46.512Z,9.656064
2018-09-13T00:34:58.929Z,9.656064
2018-09-13T00:35:11.335Z,8.04672
2018-09-13T00:35:23.740Z,8.04672
2018-09-13T00:35:36.130Z,8.04672
2018-09-13T00:35:48.567Z,8.04672
2018-09-13T00:36:00.971Z,8.04672
2018-09-13T00:36:13.407Z,6.437376
2018-09-13T00:36:25.843Z,6.437376
2018-09-13T00:36:38.344Z,6.437376
2018-09-13T00:36:50.746Z,6.437376
2018-09-13T00:37:03.162Z,6.437376
2018-09-13T00:37:15.553Z,3.218688
2018-09-13T00:37:27.939Z,6.437376
2018-09-13T00:37:40.391Z,9.656064
2018-09-13T00:37:52.796Z,9.656064
2018-09-13T00:38:05.265Z,6.437376
2018-09-13T00:38:17.670Z,6.437376
2018-09-13T00:38:30.140Z,9.656064
2018-09-13T00:38:42.615Z,9.656064
2018-09-13T00:38:55.016Z,9.656064
2018-09-13T00:39:07.418Z,8.04672
2018-09-13T00:39:19.821Z,8.04672
2018-09-13T00:39:32.221Z,8.04672
2018-09-13T00:39:44.689Z,8.04672
2018-09-13T00:39:57.092Z,8.04672
2018-09-13T00:40:09.595Z,1.609344
2018-09-13T00:40:22.004Z,1.609344
2018-09-13T00:40:34.537Z,3.218688
2018-09-13T00:40:46.936Z,6.437376
2018-09-13T00:40:59.331Z,8.04672
2018-09-13T00:41:11.721Z,8.04672
2018-09-13T00:41:24.117Z,8.04672
2018-09-13T00:41:36.509Z,8.04672
2018-09-13T00:41:48.910Z,8.04672
2018-09-13T00:42:01.309Z,8.04672
2018-09-13T00:42:13.705Z,6.437376
2018-09-13T00:42:26.125Z,8.04672
2018-09-13T00:42:38.526Z,9.656064
2018-09-13T00:42:50.940Z,9.656064
2018-09-13T00:43:03.332Z,9.656064
2018-09-13T00:43:15.731Z,9.656064
2018-09-13T00:43:28.135Z,9.656064
2018-09-13T00:43:40.539Z,9.656064
2018-09-13T00:43:52.952Z,9.656064
2018-09-13T00:44:05.339Z,4.828032
2018-09-13T00:44:17.743Z,8.04672
2018-09-13T00:44:30.157Z,8.04672
2018-09-13T00:44:42.567Z,8.04672
2018-09-13T00:44:54.962Z,8.04672
2018-09-13T00:45:07.414Z,6.437376
2018-09-13T00:45:19.825Z,8.04672
2018-09-13T00:45:32.225Z,8.04672
2018-09-13T00:45:44.606Z,8.04672
2018-09-13T00:45:57.013Z,8.04672
2018-09-13T00:46:09.419Z,9.656064
2018-09-13T00:46:21.809Z,9.656064
2018-09-13T00:46:34.217Z,9.656064
2018-09-13T00:46:46.618Z,9.656064
2018-09-13T00:46:59.005Z,9.656064
2018-09-13T00:47:11.437Z,6.437376
2018-09-13T00:47:23.867Z,6.437376
2018-09-13T00:47:36.304Z,6.437376
2018-09-13T00:47:48.694Z,11.265408
2018-09-13T00:48:01.093Z,12.874752
2018-09-13T00:48:13.504Z,9.656064
2018-09-13T00:48:25.898Z,9.656064
2018-09-13T00:48:38.314Z,9.656064
2018-09-13T00:48:50.922Z,9.656064
2018-09-13T00:49:03.338Z,9.656064
2018-09-13T00:49:15.896Z,8.04672
2018-09-13T00:49:28.354Z,8.04672
2018-09-13T00:49:40.743Z,8.04672
2018-09-13T00:49:53.131Z,8.04672
2018-09-13T00:50:05.545Z,6.437376
2018-09-13T00:50:17.951Z,6.437376
2018-09-13T00:50:30.341Z,6.437376
2018-09-13T00:50:42.765Z,6.437376
2018-09-13T00:50:55.165Z,6.437376
2018-09-13T00:51:07.577Z,3.218688
2018-09-13T00:51:19.983Z,3.218688
2018-09-13T00:51:32.372Z,6.437376
2018-09-13T00:51:44.757Z,6.437376
2018-09-13T00:51:57.142Z,6.437376
2018-09-13T00:52:09.520Z,6.437376
2018-09-13T00:52:21.910Z,6.437376
2018-09-13T00:52:34.320Z,6.437376
2018-09-13T00:52:46.729Z,6.437376
2018-09-13T00:52:59.118Z,6.437376
2018-09-13T00:53:11.547Z,3.218688
2018-09-13T00:53:24.143Z,3.218688
2018-09-13T00:53:36.542Z,3.218688
2018-09-13T00:53:48.952Z,3.218688
2018-09-13T00:54:01.356Z,6.437376
2018-09-13T00:54:13.746Z,6.437376
2018-09-13T00:54:26.142Z,6.437376
2018-09-13T00:54:38.579Z,6.437376
2018-09-13T00:54:50.989Z,6.437376
2018-09-13T00:55:03.398Z,6.437376
2018-09-13T00:55:15.807Z,8.04672
2018-09-13T00:55:28.190Z,8.04672
2018-09-13T00:55:40.588Z,8.04672
2018-09-13T00:55:52.991Z,8.04672
2018-09-13T00:56:05.398Z,4.828032
2018-09-13T00:56:17.793Z,4.828032
2018-09-13T00:56:30.181Z,4.828032
2018-09-13T00:56:42.631Z,6.437376
2018-09-13T00:56:55.035Z,9.656064
2018-09-13T00:57:07.613Z,6.437376
2018-09-13T00:57:20.017Z,6.437376
2018-09-13T00:57:32.400Z,6.437376
2018-09-13T00:57:44.818Z,6.437376
2018-09-13T00:57:57.229Z,6.437376
2018-09-13T00:58:10.005Z,3.218688
2018-09-13T00:58:22.407Z,3.218688
2018-09-13T00:58:34.976Z,6.437376
2018-09-13T00:58:47.574Z,6.437376
2018-09-13T00:59:00.721Z,6.437376
2018-09-13T00:59:13.943Z,3.218688
2018-09-13T00:59:26.383Z,3.218688
2018-09-13T00:59:38.773Z,8.04672
2018-09-13T00:59:51.180Z,8.04672
2018-09-13T01:00:03.592Z,8.04672
2018-09-13T01:00:16.009Z,6.437376
2018-09-13T01:00:28.570Z,6.437376
2018-09-13T01:00:41.032Z,6.437376
2018-09-13T01:00:53.452Z,6.437376
2018-09-13T01:01:05.866Z,6.437376
2018-09-13T01:01:18.273Z,8.04672
2018-09-13T01:01:30.698Z,8.04672
2018-09-13T01:01:43.110Z,8.04672
2018-09-13T01:01:55.521Z,8.04672
2018-09-13T01:02:07.938Z,9.656064
2018-09-13T01:02:20.352Z,9.656064
2018-09-13T01:02:32.752Z,9.656064
2018-09-13T01:02:45.202Z,9.656064
2018-09-13T01:02:57.605Z,9.656064
2018-09-13T01:03:10.007Z,6.437376
2018-09-13T01:03:22.610Z,8.04672
2018-09-13T01:03:35.012Z,8.04672
2018-09-13T01:03:47.433Z,8.04672
2018-09-13T01:03:59.838Z,8.04672
2018-09-13T01:04:12.255Z,6.437376
2018-09-13T01:04:24.670Z,6.437376
2018-09-13T01:04:37.120Z,6.437376
2018-09-13T01:04:49.633Z,8.04672
2018-09-13T01:05:02.089Z,8.04672
2018-09-13T01:05:14.499Z,3.218688
2018-09-13T01:05:26.928Z,3.218688
2018-09-13T01:05:39.332Z,3.218688
2018-09-13T01:05:51.782Z,3.218688
2018-09-13T01:06:04.212Z,3.218688
2018-09-13T01:06:16.639Z,3.218688
2018-09-13T01:06:29.056Z,3.218688
2018-09-13T01:06:41.601Z,3.218688
2018-09-13T01:06:54.011Z,6.437376
2018-09-13T01:07:06.473Z,4.828032
2018-09-13T01:07:18.884Z,4.828032
2018-09-13T01:07:31.274Z,4.828032
2018-09-13T01:07:43.659Z,4.828032
2018-09-13T01:07:56.069Z,4.828032
2018-09-13T01:08:08.496Z,6.437376
2018-09-13T01:08:20.905Z,6.437376
2018-09-13T01:08:33.317Z,6.437376
2018-09-13T01:08:45.717Z,6.437376
2018-09-13T01:08:58.126Z,6.437376
2018-09-13T01:09:10.531Z,3.218688
2018-09-13T01:09:22.940Z,3.218688
2018-09-13T01:09:35.375Z,3.218688
2018-09-13T01:09:47.769Z,3.218688
2018-09-13T01:10:00.163Z,3.218688
2018-09-13T01:10:12.644Z,3.218688
2018-09-13T01:10:25.217Z,3.218688
2018-09-13T01:10:37.631Z,3.218688
2018-09-13T01:10:50.027Z,3.218688
2018-09-13T01:11:02.438Z,3.218688
2018-09-13T01:11:14.830Z,3.218688
2018-09-13T01:11:27.575Z,3.218688
2018-09-13T01:11:40.172Z,8.04672
2018-09-13T01:11:52.576Z,8.04672
2018-09-13T01:12:04.983Z,4.828032
2018-09-13T01:12:17.605Z,4.828032
2018-09-13T01:12:30.059Z,4.828032
2018-09-13T01:12:42.464Z,9.656064
2018-09-13T01:12:54.881Z,9.656064
2018-09-13T01:13:07.325Z,8.04672
2018-09-13T01:13:19.771Z,8.04672
2018-09-13T01:13:32.156Z,8.04672
2018-09-13T01:13:44.554Z,8.04672
2018-09-13T01:13:56.948Z,8.04672
2018-09-13T01:14:09.356Z,1.609344
2018-09-13T01:14:21.768Z,3.218688
2018-09-13T01:14:34.168Z,3.218688
2018-09-13T01:14:46.572Z,3.218688
2018-09-13T01:14:58.963Z,3.218688
2018-09-13T01:15:11.369Z,1.609344
2018-09-13T01:15:23.812Z,3.218688
2018-09-13T01:15:36.222Z,6.437376
2018-09-13T01:15:48.683Z,9.656064
2018-09-13T01:16:01.085Z,9.656064
2018-09-13T01:16:13.485Z,8.04672
2018-09-13T01:16:25.872Z,8.04672
2018-09-13T01:16:38.298Z,9.656064
2018-09-13T01:16:50.723Z,9.656064
2018-09-13T01:17:03.125Z,9.656064
2018-09-13T01:17:15.527Z,8.04672
2018-09-13T01:17:27.913Z,8.04672
2018-09-13T01:17:40.303Z,8.04672
2018-09-13T01:17:52.695Z,8.04672
2018-09-13T01:18:05.098Z,3.218688
2018-09-13T01:18:17.661Z,6.437376
2018-09-13T01:18:30.072Z,8.04672
2018-09-13T01:18:42.519Z,8.04672
2018-09-13T01:18:54.926Z,9.656064
2018-09-13T01:19:07.317Z,6.437376
2018-09-13T01:19:19.713Z,8.04672
2018-09-13T01:19:32.115Z,8.04672
2018-09-13T01:19:44.513Z,8.04672
2018-09-13T01:19:56.922Z,8.04672
2018-09-13T01:20:09.304Z,3.218688
2018-09-13T01:20:21.692Z,4.828032
2018-09-13T01:20:34.091Z,6.437376
2018-09-13T01:20:46.467Z,6.437376
2018-09-13T01:20:58.855Z,6.437376
2018-09-13T01:21:11.404Z,8.04672
2018-09-13T01:21:23.811Z,8.04672
2018-09-13T01:21:36.214Z,9.656064
2018-09-13T01:21:48.689Z,9.656064
2018-09-13T01:22:01.090Z,9.656064
2018-09-13T01:22:13.521Z,3.218688
2018-09-13T01:22:25.903Z,3.218688
2018-09-13T01:22:38.576Z,3.218688
2018-09-13T01:22:50.994Z,3.218688
2018-09-13T01:23:03.384Z,3.218688
2018-09-13T01:23:15.922Z,4.828032
2018-09-13T01:23:28.313Z,4.828032
2018-09-13T01:23:40.711Z,6.437376
2018-09-13T01:23:53.108Z,6.437376
2018-09-13T01:24:05.728Z,1.609344
2018-09-13T01:24:18.115Z,1.609344
2018-09-13T01:24:30.514Z,1.609344
2018-09-13T01:24:43.047Z,3.218688
2018-09-13T01:24:55.455Z,3.218688
2018-09-13T01:25:07.873Z,1.609344
2018-09-13T01:25:20.252Z,4.828032
2018-09-13T01:25:32.687Z,6.437376
2018-09-13T01:25:45.068Z,6.437376
2018-09-13T01:25:57.455Z,6.437376
2018-09-13T01:26:09.836Z,1.609344
2018-09-13T01:26:22.246Z,3.218688
2018-09-13T01:26:34.658Z,4.828032
2018-09-13T01:26:47.055Z,6.437376
2018-09-13T01:26:59.688Z,6.437376
2018-09-13T01:27:12.109Z,3.218688
2018-09-13T01:27:24.533Z,3.218688
2018-09-13T01:27:36.983Z,3.218688
2018-09-13T01:27:49.383Z,3.218688
2018-09-13T01:28:01.779Z,6.437376
2018-09-13T01:28:14.186Z,3.218688
2018-09-13T01:28:26.598Z,4.828032
2018-09-13T01:28:39.014Z,4.828032
2018-09-13T01:28:51.419Z,6.437376
2018-09-13T01:29:03.836Z,8.04672
2018-09-13T01:29:16.248Z,8.04672
2018-09-13T01:29:28.646Z,8.04672
2018-09-13T01:29:41.038Z,8.04672
2018-09-13T01:29:53.457Z,8.04672
2018-09-13T01:30:05.886Z,6.437376
2018-09-13T01:30:18.279Z,6.437376
2018-09-13T01:30:30.682Z,6.437376
2018-09-13T01:30:43.192Z,6.437376
2018-09-13T01:30:55.643Z,6.437376
2018-09-13T01:31:08.091Z,3.218688
2018-09-13T01:31:20.504Z,3.218688
2018-09-13T01:31:32.907Z,3.218688
2018-09-13T01:31:45.312Z,3.218688
2018-09-13T01:31:57.736Z,3.218688
2018-09-13T01:32:10.123Z,1.609344
2018-09-13T01:32:22.539Z,3.218688
2018-09-13T01:32:34.947Z,3.218688
2018-09-13T01:32:47.361Z,3.218688
2018-09-13T01:32:59.772Z,8.04672
2018-09-13T01:33:12.219Z,4.828032
2018-09-13T01:33:24.625Z,4.828032
2018-09-13T01:33:37.124Z,4.828032
2018-09-13T01:33:49.528Z,4.828032
2018-09-13T01:34:01.971Z,4.828032
2018-09-13T01:34:14.368Z,6.437376
2018-09-13T01:34:26.765Z,6.437376
2018-09-13T01:34:39.218Z,6.437376
2018-09-13T01:34:51.614Z,6.437376
2018-09-13T01:35:04.029Z,6.437376
2018-09-13T01:35:16.424Z,1.609344
2018-09-13T01:35:28.818Z,3.218688
2018-09-13T01:35:41.345Z,8.04672
2018-09-13T01:35:53.738Z,9.656064
2018-09-13T01:36:06.130Z,9.656064
2018-09-13T01:36:18.521Z,9.656064
2018-09-13T01:36:30.912Z,9.656064
2018-09-13T01:36:43.325Z,9.656064
2018-09-13T01:36:55.726Z,9.656064
2018-09-13T01:37:08.111Z,4.828032
2018-09-13T01:37:20.512Z,6.437376
2018-09-13T01:37:32.903Z,11.265408
2018-09-13T01:37:45.339Z,11.265408
2018-09-13T01:37:57.745Z,11.265408
2018-09-13T01:38:10.171Z,8.04672
2018-09-13T01:38:22.585Z,8.04672
2018-09-13T01:38:35.002Z,8.04672
2018-09-13T01:38:47.393Z,8.04672
2018-09-13T01:38:59.832Z,8.04672
2018-09-13T01:39:12.277Z,6.437376
2018-09-13T01:39:24.655Z,6.437376
2018-09-13T01:39:37.406Z,6.437376
2018-09-13T01:39:49.803Z,6.437376
2018-09-13T01:40:02.226Z,6.437376
2018-09-13T01:40:14.989Z,6.437376
2018-09-13T01:40:27.375Z,6.437376
2018-09-13T01:40:39.806Z,6.437376
2018-09-13T01:40:52.220Z,6.437376
2018-09-13T01:41:04.617Z,8.04672
2018-09-13T01:41:17.027Z,9.656064
2018-09-13T01:41:29.419Z,9.656064
2018-09-13T01:41:41.823Z,9.656064
2018-09-13T01:41:54.217Z,9.656064
2018-09-13T01:42:06.617Z,1.609344
2018-09-13T01:42:19.029Z,3.218688
2018-09-13T01:42:31.437Z,3.218688
2018-09-13T01:42:43.847Z,3.218688
2018-09-13T01:42:56.248Z,3.218688
2018-09-13T01:43:08.666Z,3.218688
2018-09-13T01:43:21.048Z,3.218688
2018-09-13T01:43:33.509Z,4.828032
2018-09-13T01:43:45.897Z,4.828032
2018-09-13T01:43:58.287Z,4.828032
2018-09-13T01:44:10.687Z,6.437376
2018-09-13T01:44:23.092Z,6.437376
2018-09-13T01:44:35.587Z,6.437376
2018-09-13T01:44:47.987Z,6.437376
2018-09-13T01:45:00.389Z,8.04672
2018-09-13T01:45:12.797Z,9.656064
2018-09-13T01:45:25.182Z,9.656064
2018-09-13T01:45:37.567Z,9.656064
2018-09-13T01:45:49.961Z,9.656064
2018-09-13T01:46:02.354Z,9.656064
2018-09-13T01:46:14.750Z,6.437376
2018-09-13T01:46:27.156Z,6.437376
2018-09-13T01:46:39.548Z,8.04672
2018-09-13T01:46:51.975Z,9.656064
2018-09-13T01:47:04.357Z,9.656064
2018-09-13T01:47:16.770Z,8.04672
2018-09-13T01:47:29.185Z,8.04672
2018-09-13T01:47:41.599Z,8.04672
2018-09-13T01:47:54.004Z,8.04672
2018-09-13T01:48:06.391Z,3.218688
2018-09-13T01:48:18.778Z,3.218688
2018-09-13T01:48:31.175Z,3.218688
2018-09-13T01:48:43.575Z,3.218688
2018-09-13T01:48:56.124Z,3.218688
2018-09-13T01:49:08.548Z,6.437376
2018-09-13T01:49:21.057Z,8.04672
2018-09-13T01:49:33.450Z,8.04672
2018-09-13T01:49:45.842Z,8.04672
2018-09-13T01:49:58.274Z,8.04672
2018-09-13T01:50:10.686Z,4.828032
2018-09-13T01:50:23.086Z,4.828032
2018-09-13T01:50:35.533Z,4.828032
2018-09-13T01:50:47.941Z,4.828032
2018-09-13T01:51:00.325Z,4.828032
2018-09-13T01:51:12.709Z,3.218688
2018-09-13T01:51:25.116Z,8.04672
2018-09-13T01:51:37.493Z,8.04672
2018-09-13T01:51:49.897Z,8.04672
2018-09-13T01:52:02.313Z,8.04672
2018-09-13T01:52:14.703Z,3.218688
2018-09-13T01:52:27.119Z,3.218688
2018-09-13T01:52:39.507Z,6.437376
2018-09-13T01:52:51.905Z,6.437376
2018-09-13T01:53:04.307Z,6.437376
2018-09-13T01:53:17.004Z,8.04672
2018-09-13T01:53:29.411Z,9.656064
2018-09-13T01:53:41.975Z,9.656064
2018-09-13T01:53:54.371Z,9.656064
2018-09-13T01:54:06.759Z,1.609344
2018-09-13T01:54:19.149Z,1.609344
2018-09-13T01:54:31.553Z,3.218688
2018-09-13T01:54:43.948Z,6.437376
2018-09-13T01:54:56.334Z,6.437376
2018-09-13T01:55:08.757Z,1.609344
2018-09-13T01:55:21.158Z,3.218688
2018-09-13T01:55:33.563Z,3.218688
2018-09-13T01:55:45.960Z,3.218688
2018-09-13T01:55:58.336Z,4.828032
2018-09-13T01:56:10.749Z,4.828032
2018-09-13T01:56:23.139Z,4.828032
2018-09-13T01:56:35.562Z,8.04672
2018-09-13T01:56:47.982Z,8.04672
2018-09-13T01:57:00.410Z,8.04672
2018-09-13T01:57:12.843Z,3.218688
2018-09-13T01:57:25.238Z,3.218688
2018-09-13T01:57:37.656Z,3.218688
2018-09-13T01:57:50.068Z,3.218688
2018-09-13T01:58:02.464Z,6.437376
2018-09-13T01:58:14.890Z,6.437376
2018-09-13T01:58:27.390Z,6.437376
2018-09-13T01:58:39.781Z,6.437376
2018-09-13T01:58:52.469Z,8.04672
2018-09-13T01:59:04.866Z,6.437376
2018-09-13T01:59:17.250Z,8.04672
2018-09-13T01:59:29.652Z,8.04672
2018-09-13T01:59:42.053Z,8.04672
2018-09-13T01:59:54.443Z,9.656064
2018-09-13T02:00:06.864Z,8.04672
2018-09-13T02:00:19.281Z,8.04672
2018-09-13T02:00:31.709Z,8.04672
2018-09-13T02:00:44.135Z,8.04672
2018-09-13T02:00:56.616Z,8.04672
2018-09-13T02:01:09.055Z,3.218688
2018-09-13T02:01:21.478Z,8.04672
2018-09-13T02:01:34.037Z,8.04672
2018-09-13T02:01:46.439Z,8.04672
2018-09-13T02:01:58.844Z,8.04672
2018-09-13T02:02:11.254Z,8.04672
2018-09-13T02:02:23.670Z,8.04672
2018-09-13T02:02:36.102Z,8.04672
2018-09-13T02:02:48.497Z,8.04672
2018-09-13T02:03:00.900Z,8.04672
2018-09-13T02:03:13.315Z,8.04672
2018-09-13T02:03:25.841Z,8.04672
2018-09-13T02:03:38.262Z,8.04672
2018-09-13T02:03:50.745Z,8.04672
2018-09-13T02:04:03.213Z,8.04672
2018-09-13T02:04:15.607Z,6.437376
2018-09-13T02:04:28.020Z,6.437376
2018-09-13T02:04:40.449Z,8.04672
2018-09-13T02:04:53.034Z,9.656064
2018-09-13T02:05:05.443Z,4.828032
2018-09-13T02:05:17.860Z,4.828032
2018-09-13T02:05:30.246Z,8.04672
2018-09-13T02:05:42.632Z,8.04672
2018-09-13T02:05:55.049Z,8.04672
2018-09-13T02:06:07.456Z,8.04672
2018-09-13T02:06:19.851Z,8.04672
2018-09-13T02:06:32.442Z,8.04672
2018-09-13T02:06:44.856Z,8.04672
2018-09-13T02:06:57.260Z,8.04672
2018-09-13T02:07:09.654Z,11.265408
2018-09-13T02:07:22.063Z,11.265408
2018-09-13T02:07:34.472Z,11.265408
2018-09-13T02:07:46.926Z,11.265408
2018-09-13T02:07:59.342Z,11.265408
2018-09-13T02:08:11.752Z,8.04672
2018-09-13T02:08:24.180Z,8.04672
2018-09-13T02:08:36.582Z,8.04672
2018-09-13T02:08:48.985Z,8.04672
2018-09-13T02:09:01.379Z,8.04672
2018-09-13T02:09:13.772Z,6.437376
2018-09-13T02:09:26.170Z,6.437376
2018-09-13T02:09:38.588Z,6.437376
2018-09-13T02:09:50.997Z,8.04672
2018-09-13T02:10:03.387Z,8.04672
2018-09-13T02:10:15.777Z,9.656064
2018-09-13T02:10:28.303Z,9.656064
2018-09-13T02:10:40.748Z,11.265408
2018-09-13T02:10:53.181Z,11.265408
2018-09-13T02:11:05.594Z,3.218688
2018-09-13T02:11:17.989Z,4.828032
2018-09-13T02:11:30.754Z,8.04672
2018-09-13T02:11:43.243Z,8.04672
2018-09-13T02:11:55.648Z,8.04672
2018-09-13T02:12:08.154Z,4.828032
2018-09-13T02:12:20.545Z,6.437376
2018-09-13T02:12:32.968Z,8.04672
2018-09-13T02:12:45.363Z,8.04672
2018-09-13T02:12:57.759Z,8.04672
2018-09-13T02:13:10.166Z,6.437376
2018-09-13T02:13:22.597Z,6.437376
2018-09-13T02:13:35.010Z,6.437376
2018-09-13T02:13:47.418Z,6.437376
2018-09-13T02:13:59.866Z,9.656064
2018-09-13T02:14:12.257Z,9.656064
2018-09-13T02:14:24.686Z,11.265408
2018-09-13T02:14:37.124Z,11.265408
2018-09-13T02:14:50.560Z,11.265408
2018-09-13T02:15:02.954Z,11.265408
2018-09-13T02:15:15.364Z,11.265408
2018-09-13T02:15:27.758Z,11.265408
2018-09-13T02:15:40.156Z,11.265408
2018-09-13T02:15:52.560Z,11.265408
2018-09-13T02:16:04.980Z,1.609344
2018-09-13T02:16:17.400Z,3.218688
2018-09-13T02:16:30.186Z,4.828032
2018-09-13T02:16:42.720Z,6.437376
2018-09-13T02:16:55.147Z,6.437376
2018-09-13T02:17:07.561Z,3.218688
2018-09-13T02:17:19.985Z,4.828032
2018-09-13T02:17:32.419Z,8.04672
2018-09-13T02:17:44.860Z,8.04672
2018-09-13T02:17:57.344Z,8.04672
2018-09-13T02:18:09.746Z,3.218688
2018-09-13T02:18:22.147Z,3.218688
2018-09-13T02:18:34.532Z,3.218688
2018-09-13T02:18:46.939Z,3.218688
2018-09-13T02:18:59.333Z,6.437376
2018-09-13T02:19:11.743Z,6.437376
2018-09-13T02:19:24.160Z,6.437376
2018-09-13T02:19:36.564Z,8.04672
2018-09-13T02:19:49.015Z,8.04672
2018-09-13T02:20:01.422Z,8.04672
2018-09-13T02:20:13.820Z,3.218688
2018-09-13T02:20:26.218Z,3.218688
2018-09-13T02:20:38.624Z,3.218688
2018-09-13T02:20:51.019Z,3.218688
2018-09-13T02:21:03.516Z,4.828032
2018-09-13T02:21:15.917Z,6.437376
2018-09-13T02:21:28.307Z,6.437376
2018-09-13T02:21:41.116Z,6.437376
2018-09-13T02:21:53.515Z,6.437376
2018-09-13T02:22:05.934Z,1.609344
2018-09-13T02:22:18.327Z,1.609344
2018-09-13T02:22:30.745Z,1.609344
2018-09-13T02:22:43.232Z,1.609344
2018-09-13T02:22:55.659Z,1.609344
2018-09-13T02:23:08.059Z,1.609344
2018-09-13T02:23:20.565Z,1.609344
2018-09-13T02:23:32.972Z,1.609344
2018-09-13T02:23:45.438Z,1.609344
2018-09-13T02:23:58.013Z,1.609344
2018-09-13T02:24:10.406Z,1.609344
2018-09-13T02:24:22.804Z,3.218688
2018-09-13T02:24:35.197Z,4.828032
2018-09-13T02:24:47.595Z,4.828032
2018-09-13T02:25:00.007Z,4.828032
2018-09-13T02:25:12.683Z,3.218688
2018-09-13T02:25:25.092Z,3.218688
2018-09-13T02:25:37.495Z,3.218688
2018-09-13T02:25:50.022Z,3.218688
2018-09-13T02:26:02.431Z,3.218688
2018-09-13T02:26:14.814Z,1.609344
2018-09-13T02:26:27.217Z,8.04672
2018-09-13T02:26:39.630Z,9.656064
2018-09-13T02:26:52.047Z,9.656064
2018-09-13T02:27:04.432Z,9.656064
2018-09-13T02:27:16.842Z,3.218688